Kezdőlap
METAR-TAF:

METAR-TAF

Repülőterek :

Cox Field

Paris, Texas, Amerikai Egyesült Államok

földrajzi szélesség: 33-38N, földrajzi hosszúság: 095-27W, magasság: 167 m

Jelenlegi meteorológiai megfigyelések

A jelentés 23 perccel ezelõtt készült, 10:56 UTC
Szélcsend
Hőmérséklet 21°C
Páratartalom 100%
Légköri nyomás 1015 hPa
Látótávolság: 16.1 km
Derült ég

METAR: KPRX 151056Z AUTO 00000KT 10SM CLR 21/21 A2997 RMK AO2 SLP145 T02110211

Idő: 06:19 (11:19 UTC)


TAF: hiányzik

Meteorológiai megfigyelések és előrejelzések több, mint 4000 repülőtéren (METAR és TAF jelentéseket).

A térképen piros és sárga pontok jelzik az elérhető meteorológiai állomásokat.

Mozgassa az egeret a pont fölött, hogy megjelenjen az állomás neve.

Azután kattintson az időjárási megfigyelések és előrejelzések megtekintéséhez.

A térkép megváltoztatása: kattintson a fekete keresztel jelölt zöld gombra ráközelítéshez, a vonallal jelölt zöld gombra távolításhoz, vagy a zöld nyilakra a szomszédos térképek eléréséhez.


METAR-TAF: